createdAt,value
2023-10-25T00:01:46.369Z,14.47
2023-10-25T00:04:13.459Z,14.51
2023-10-25T00:06:40.369Z,14.61
2023-10-25T00:09:07.222Z,14.51
2023-10-25T00:11:34.034Z,14.49
2023-10-25T00:14:00.880Z,14.41
2023-10-25T00:16:27.660Z,14.32
2023-10-25T00:18:54.746Z,14.30
2023-10-25T00:21:21.526Z,14.38
2023-10-25T00:23:48.293Z,14.40
2023-10-25T00:26:15.130Z,14.30
2023-10-25T00:28:41.876Z,14.24
2023-10-25T00:31:09.041Z,14.22
2023-10-25T00:33:36.269Z,14.34
2023-10-25T00:36:03.174Z,14.46
2023-10-25T00:38:30.001Z,14.52
2023-10-25T00:40:56.762Z,14.56
2023-10-25T00:43:24.523Z,14.49
2023-10-25T00:46:03.144Z,14.41
2023-10-25T00:48:30.961Z,14.36
2023-10-25T00:50:58.495Z,14.34
2023-10-25T00:53:26.655Z,14.33
2023-10-25T00:55:56.713Z,14.38
2023-10-25T00:58:24.743Z,14.39
2023-10-25T01:03:31.037Z,14.15
2023-10-25T01:05:58.157Z,14.00
2023-10-25T01:08:25.076Z,13.88
2023-10-25T01:10:53.334Z,13.81
2023-10-25T01:13:21.360Z,13.66
2023-10-25T01:15:48.769Z,13.64
2023-10-25T01:18:16.363Z,13.67
2023-10-25T01:20:43.804Z,13.70
2023-10-25T01:23:11.100Z,13.71
2023-10-25T01:25:39.415Z,13.71
2023-10-25T01:28:06.868Z,13.84
2023-10-25T01:30:33.865Z,13.92
2023-10-25T01:33:01.069Z,13.90
2023-10-25T01:35:28.057Z,13.80
2023-10-25T01:37:55.736Z,13.78
2023-10-25T01:40:22.558Z,13.77
2023-10-25T01:42:52.636Z,13.79
2023-10-25T01:45:20.166Z,13.81
2023-10-25T01:47:46.940Z,13.80
2023-10-25T01:50:13.715Z,13.67
2023-10-25T01:52:40.529Z,13.66
2023-10-25T01:55:08.670Z,13.65
2023-10-25T01:57:35.591Z,13.67
2023-10-25T02:00:07.935Z,13.68
2023-10-25T02:02:35.290Z,13.77
2023-10-25T02:05:02.227Z,13.81
2023-10-25T02:07:29.339Z,13.81
2023-10-25T02:09:56.294Z,13.84
2023-10-25T02:12:23.114Z,13.82
2023-10-25T02:14:49.974Z,13.86
2023-10-25T02:17:16.821Z,13.86
2023-10-25T02:19:43.839Z,13.74
2023-10-25T02:22:10.855Z,13.72
2023-10-25T02:24:37.644Z,13.51
2023-10-25T02:27:04.784Z,13.37
2023-10-25T02:29:32.800Z,13.34
2023-10-25T02:31:59.764Z,13.15
2023-10-25T02:34:26.680Z,12.93
2023-10-25T02:36:53.460Z,12.86
2023-10-25T02:39:20.271Z,12.91
2023-10-25T02:41:47.018Z,13.15
2023-10-25T02:44:14.083Z,13.30
2023-10-25T02:46:40.922Z,13.37
2023-10-25T02:49:07.964Z,13.23
2023-10-25T02:51:35.759Z,13.17
2023-10-25T02:54:02.513Z,13.26
2023-10-25T02:56:29.319Z,13.25
2023-10-25T02:58:56.054Z,13.26
2023-10-25T03:01:26.459Z,13.16
2023-10-25T03:03:53.454Z,13.09
2023-10-25T03:06:20.406Z,13.19
2023-10-25T03:08:48.108Z,13.29
2023-10-25T03:11:14.924Z,13.27
2023-10-25T03:13:41.798Z,13.29
2023-10-25T03:16:10.226Z,13.37
2023-10-25T03:18:37.092Z,13.40
2023-10-25T03:21:05.097Z,13.39
2023-10-25T03:23:32.611Z,13.13
2023-10-25T03:26:07.425Z,12.98
2023-10-25T03:28:37.532Z,12.92
2023-10-25T03:31:07.474Z,13.02
2023-10-25T03:33:35.058Z,13.09
2023-10-25T03:36:02.213Z,13.13
2023-10-25T03:38:29.623Z,13.06
2023-10-25T03:41:05.272Z,13.05
2023-10-25T03:43:36.056Z,13.06
2023-10-25T03:46:09.720Z,12.98
2023-10-25T03:48:38.373Z,12.94
2023-10-25T03:51:06.622Z,12.62
2023-10-25T03:53:37.384Z,12.60
2023-10-25T03:56:04.700Z,12.73
2023-10-25T03:58:31.778Z,12.80
2023-10-25T04:01:11.291Z,12.79
2023-10-25T04:03:38.744Z,12.81
2023-10-25T04:06:06.525Z,12.84
2023-10-25T04:08:33.460Z,12.79
2023-10-25T04:11:01.202Z,12.70
2023-10-25T04:13:28.451Z,12.59
2023-10-25T04:16:01.942Z,12.63
2023-10-25T04:18:30.331Z,12.49
2023-10-25T04:20:58.675Z,12.38
2023-10-25T04:23:31.839Z,12.21
2023-10-25T04:26:09.087Z,12.08
2023-10-25T04:28:37.631Z,11.92
2023-10-25T04:31:04.581Z,11.74
2023-10-25T04:33:31.668Z,11.60
2023-10-25T04:35:58.628Z,11.75
2023-10-25T04:38:26.065Z,12.00
2023-10-25T04:40:56.690Z,12.05
2023-10-25T04:43:23.568Z,12.14
2023-10-25T04:45:50.538Z,12.00
2023-10-25T04:48:17.340Z,11.95
2023-10-25T04:50:44.414Z,12.12
2023-10-25T04:53:11.438Z,12.11
2023-10-25T04:55:38.523Z,12.21
2023-10-25T04:58:06.033Z,12.08
2023-10-25T05:00:33.431Z,11.98
2023-10-25T05:03:00.432Z,11.89
2023-10-25T05:05:27.400Z,11.80
2023-10-25T05:07:54.417Z,11.62
2023-10-25T05:10:21.669Z,11.72
2023-10-25T05:12:49.627Z,11.83
2023-10-25T05:15:18.634Z,11.90
2023-10-25T05:17:48.910Z,11.84
2023-10-25T05:20:16.424Z,11.92
2023-10-25T05:22:48.686Z,12.00
2023-10-25T05:25:15.964Z,12.01
2023-10-25T05:27:43.280Z,11.99
2023-10-25T05:30:11.336Z,11.99
2023-10-25T05:32:39.236Z,12.06
2023-10-25T05:35:07.675Z,12.03
2023-10-25T05:37:35.139Z,11.86
2023-10-25T05:40:02.458Z,11.74
2023-10-25T05:42:29.567Z,11.79
2023-10-25T05:44:56.985Z,11.92
2023-10-25T05:47:27.788Z,11.99
2023-10-25T05:49:55.135Z,12.03
2023-10-25T05:52:22.266Z,12.13
2023-10-25T05:54:49.421Z,11.95
2023-10-25T05:57:16.465Z,11.88
2023-10-25T05:59:43.616Z,11.92
2023-10-25T06:02:24.198Z,11.88
2023-10-25T06:04:51.879Z,11.82
2023-10-25T06:07:18.795Z,11.78
2023-10-25T06:09:45.814Z,11.81
2023-10-25T06:12:13.004Z,11.80
2023-10-25T06:14:39.750Z,11.71
2023-10-25T06:17:06.646Z,11.78
2023-10-25T06:19:33.661Z,11.89
2023-10-25T06:22:00.428Z,11.91
2023-10-25T06:24:27.134Z,11.99
2023-10-25T06:26:53.841Z,11.97
2023-10-25T06:29:20.631Z,11.96
2023-10-25T06:31:53.483Z,11.96
2023-10-25T06:34:21.313Z,11.81
2023-10-25T06:36:49.252Z,11.81
2023-10-25T06:39:16.873Z,11.81
2023-10-25T06:41:45.034Z,11.74
2023-10-25T06:44:12.429Z,11.58
2023-10-25T06:46:39.748Z,11.54
2023-10-25T06:49:07.283Z,11.54
2023-10-25T06:51:34.404Z,11.70
2023-10-25T06:54:01.603Z,11.76
2023-10-25T06:56:30.526Z,11.87
2023-10-25T06:58:59.097Z,11.98
2023-10-25T07:01:29.296Z,12.05
2023-10-25T07:03:59.543Z,11.87
2023-10-25T07:06:26.845Z,11.44
2023-10-25T07:08:53.900Z,11.47
2023-10-25T07:11:22.670Z,11.76
2023-10-25T07:13:51.109Z,11.95
2023-10-25T07:16:17.993Z,12.06
2023-10-25T07:18:47.025Z,12.13
2023-10-25T07:21:13.795Z,12.14
2023-10-25T07:23:40.824Z,12.12
2023-10-25T07:26:08.226Z,12.07
2023-10-25T07:28:35.032Z,12.21
2023-10-25T07:31:01.855Z,12.32
2023-10-25T07:33:29.994Z,12.47
2023-10-25T07:35:56.911Z,12.48
2023-10-25T07:38:23.813Z,12.56
2023-10-25T07:40:51.087Z,12.63
2023-10-25T07:43:18.009Z,12.53
2023-10-25T07:45:44.969Z,12.38
2023-10-25T07:48:11.948Z,12.79
2023-10-25T07:50:39.039Z,12.94
2023-10-25T07:53:05.918Z,13.03
2023-10-25T08:00:31.999Z,13.17
2023-10-25T08:02:58.814Z,13.21
2023-10-25T08:05:25.702Z,13.35
2023-10-25T08:07:52.839Z,13.39
2023-10-25T08:10:19.862Z,13.52
2023-10-25T08:12:46.630Z,13.56
2023-10-25T08:15:13.859Z,13.66
2023-10-25T08:17:40.765Z,13.64
2023-10-25T08:20:08.164Z,13.57
2023-10-25T08:22:36.564Z,13.37
2023-10-25T08:25:03.611Z,13.29
2023-10-25T08:27:31.294Z,13.50
2023-10-25T08:29:58.089Z,13.67
2023-10-25T08:32:24.916Z,13.66
2023-10-25T08:34:51.930Z,13.69
2023-10-25T08:37:19.559Z,13.74
2023-10-25T08:39:46.317Z,13.77
2023-10-25T08:42:13.618Z,13.92
2023-10-25T08:44:43.402Z,13.93
2023-10-25T08:47:11.816Z,13.89
2023-10-25T08:49:39.397Z,13.89
2023-10-25T08:52:07.550Z,13.85
2023-10-25T08:54:36.944Z,13.80
2023-10-25T08:57:06.111Z,14.07
2023-10-25T08:59:42.133Z,14.38
2023-10-25T09:02:10.920Z,14.53
2023-10-25T09:04:37.715Z,14.71
2023-10-25T09:07:34.661Z,14.79
2023-10-25T09:10:01.411Z,14.71
2023-10-25T09:12:28.503Z,14.79
2023-10-25T09:14:55.297Z,14.77
2023-10-25T09:17:22.145Z,14.73
2023-10-25T09:19:50.477Z,14.67
2023-10-25T09:22:26.618Z,14.52
2023-10-25T09:24:56.124Z,14.49
2023-10-25T09:29:52.648Z,14.86
2023-10-25T09:32:21.355Z,15.12
2023-10-25T09:34:49.447Z,15.35
2023-10-25T09:37:16.989Z,15.48
2023-10-25T09:39:44.027Z,15.60
2023-10-25T09:42:12.514Z,15.76
2023-10-25T09:44:49.578Z,15.92
2023-10-25T09:47:17.966Z,16.00
2023-10-25T09:49:46.203Z,16.04
2023-10-25T09:52:26.247Z,16.18
2023-10-25T09:55:00.718Z,16.13
2023-10-25T09:57:30.788Z,15.90
2023-10-25T09:59:58.795Z,15.75
2023-10-25T10:02:40.899Z,15.99
2023-10-25T10:05:15.038Z,16.37
2023-10-25T10:08:07.046Z,16.84
2023-10-25T10:10:43.743Z,17.01
2023-10-25T10:13:21.511Z,16.95
2023-10-25T10:16:12.490Z,16.93
2023-10-25T10:18:43.868Z,17.16
2023-10-25T10:21:11.746Z,17.13
2023-10-25T10:23:41.609Z,17.08
2023-10-25T10:26:09.692Z,17.25
2023-10-25T10:28:43.811Z,17.22
2023-10-25T10:31:12.298Z,17.21
2023-10-25T10:33:45.056Z,17.62
2023-10-25T10:36:12.206Z,17.77
2023-10-25T10:39:14.064Z,17.88
2023-10-25T10:41:45.346Z,18.08
2023-10-25T10:44:12.851Z,18.24
2023-10-25T10:46:51.176Z,18.26
2023-10-25T10:49:19.947Z,18.03
2023-10-25T10:51:48.242Z,18.23
2023-10-25T10:54:16.843Z,18.35
2023-10-25T10:56:43.669Z,19.25
2023-10-25T10:59:10.748Z,21.05
2023-10-25T11:01:37.701Z,22.15
2023-10-25T11:04:04.767Z,22.74
2023-10-25T11:06:31.620Z,22.08
2023-10-25T11:09:01.322Z,21.53
2023-10-25T11:11:28.296Z,20.23
2023-10-25T11:13:55.433Z,19.66
2023-10-25T11:16:22.216Z,19.60
2023-10-25T11:18:49.086Z,19.51
2023-10-25T11:21:15.977Z,19.07
2023-10-25T11:23:43.993Z,19.03
2023-10-25T11:26:10.837Z,18.73
2023-10-25T11:28:40.341Z,18.46
2023-10-25T11:31:08.964Z,18.90
2023-10-25T11:33:46.500Z,20.84
2023-10-25T11:36:13.403Z,22.07
2023-10-25T11:38:44.886Z,22.52
2023-10-25T11:41:12.554Z,23.23
2023-10-25T11:43:40.736Z,24.19
2023-10-25T11:46:07.475Z,23.75
2023-10-25T11:48:38.893Z,25.14
2023-10-25T11:51:08.066Z,27.45
2023-10-25T11:53:34.942Z,28.28
2023-10-25T11:56:02.015Z,29.57
2023-10-25T11:58:32.268Z,29.69
2023-10-25T12:01:00.242Z,29.00
2023-10-25T12:03:27.111Z,28.94
2023-10-25T12:05:54.139Z,29.54
2023-10-25T12:08:21.024Z,28.94
2023-10-25T12:10:47.704Z,28.05
2023-10-25T12:13:14.754Z,27.05
2023-10-25T12:15:41.502Z,27.18
2023-10-25T12:18:08.400Z,26.06
2023-10-25T12:20:35.239Z,25.80
2023-10-25T12:23:03.180Z,25.70
2023-10-25T12:25:29.815Z,24.74
2023-10-25T12:27:56.822Z,23.88
2023-10-25T12:30:24.283Z,23.37
2023-10-25T12:32:52.810Z,22.58
2023-10-25T12:35:19.772Z,21.82
2023-10-25T12:37:46.604Z,21.57
2023-10-25T12:40:13.378Z,21.48
2023-10-25T12:42:40.291Z,20.71
2023-10-25T12:45:08.860Z,19.80
2023-10-25T12:47:35.930Z,19.18
2023-10-25T12:50:05.258Z,18.91
2023-10-25T12:52:31.979Z,18.47
2023-10-25T12:54:58.719Z,18.36
2023-10-25T12:57:25.611Z,18.27
2023-10-25T12:59:52.346Z,18.25
2023-10-25T13:02:19.453Z,18.18
2023-10-25T13:04:46.276Z,18.24
2023-10-25T13:07:13.074Z,18.18
2023-10-25T13:09:40.552Z,18.11
2023-10-25T13:12:10.163Z,18.13
2023-10-25T13:14:37.265Z,18.06
2023-10-25T13:17:19.000Z,17.97
2023-10-25T13:19:47.216Z,17.87
2023-10-25T13:22:15.690Z,17.93
2023-10-25T13:24:43.038Z,17.95
2023-10-25T13:27:10.094Z,17.86
2023-10-25T13:29:36.895Z,17.55
2023-10-25T13:32:04.052Z,17.52
2023-10-25T13:34:30.773Z,17.21
2023-10-25T13:36:57.482Z,17.16
2023-10-25T13:39:24.243Z,17.28
2023-10-25T13:41:51.542Z,17.30
2023-10-25T13:44:18.324Z,17.45
2023-10-25T13:46:46.084Z,17.59
2023-10-25T13:49:15.228Z,17.49
2023-10-25T13:51:43.416Z,17.49
2023-10-25T13:54:10.290Z,17.69
2023-10-25T13:56:37.117Z,17.87
2023-10-25T13:59:04.075Z,17.95
2023-10-25T14:01:30.799Z,17.94
2023-10-25T14:03:58.396Z,17.94
2023-10-25T14:06:25.907Z,18.16
2023-10-25T14:08:52.634Z,18.11
2023-10-25T14:11:20.236Z,18.14
2023-10-25T14:13:47.103Z,18.20
2023-10-25T14:16:13.954Z,18.28
2023-10-25T14:18:40.840Z,18.42
2023-10-25T14:21:14.294Z,18.56
2023-10-25T14:23:43.177Z,18.59
2023-10-25T14:26:09.977Z,19.07
2023-10-25T14:28:36.842Z,19.24
2023-10-25T14:31:04.978Z,19.10
2023-10-25T14:33:31.974Z,19.09
2023-10-25T14:35:59.065Z,18.98
2023-10-25T14:38:25.931Z,18.97
2023-10-25T14:40:52.733Z,18.68
2023-10-25T14:43:19.538Z,18.73
2023-10-25T14:45:47.372Z,18.52
2023-10-25T14:48:14.870Z,18.47
2023-10-25T14:50:41.835Z,18.48
2023-10-25T14:53:08.886Z,18.29
2023-10-25T14:55:37.488Z,18.16
2023-10-25T14:58:06.483Z,18.06
2023-10-25T15:00:33.809Z,17.91
2023-10-25T15:03:00.862Z,17.57
2023-10-25T15:05:27.945Z,17.71
2023-10-25T15:07:56.662Z,17.82
2023-10-25T15:10:23.916Z,17.80
2023-10-25T15:12:50.725Z,17.86
2023-10-25T15:15:17.579Z,17.93
2023-10-25T15:17:47.352Z,17.67
2023-10-25T15:20:15.345Z,17.29
2023-10-25T15:22:42.370Z,17.27
2023-10-25T15:25:11.152Z,17.35
2023-10-25T15:27:38.626Z,17.34
2023-10-25T15:30:06.255Z,17.39
2023-10-25T15:32:33.169Z,17.18
2023-10-25T15:35:00.880Z,16.85
2023-10-25T15:37:28.632Z,16.74
2023-10-25T15:40:14.991Z,16.56
2023-10-25T15:42:42.693Z,16.71
2023-10-25T15:45:14.223Z,16.58
2023-10-25T15:47:41.617Z,16.49
2023-10-25T15:50:09.429Z,16.44
2023-10-25T15:52:36.376Z,16.25
2023-10-25T15:55:04.811Z,16.45
2023-10-25T15:57:32.517Z,16.59
2023-10-25T15:59:59.209Z,16.56
2023-10-25T16:02:26.045Z,16.54
2023-10-25T16:04:53.154Z,16.39
2023-10-25T16:07:20.043Z,16.23
2023-10-25T16:09:46.729Z,16.27
2023-10-25T16:12:13.695Z,16.21
2023-10-25T16:14:40.455Z,15.92
2023-10-25T16:17:07.248Z,15.75
2023-10-25T16:19:37.100Z,15.81
2023-10-25T16:22:05.688Z,15.75
2023-10-25T16:24:32.503Z,15.86
2023-10-25T16:27:00.284Z,15.84
2023-10-25T16:29:30.525Z,15.65
2023-10-25T16:31:57.250Z,15.53
2023-10-25T16:34:24.070Z,15.46
2023-10-25T16:37:04.198Z,15.62
2023-10-25T16:39:32.428Z,15.60
2023-10-25T16:42:02.522Z,15.47
2023-10-25T16:44:29.338Z,15.43
2023-10-25T16:46:56.292Z,15.14
2023-10-25T16:49:23.170Z,14.95
2023-10-25T16:51:49.958Z,14.99
2023-10-25T16:54:16.815Z,14.98
2023-10-25T16:56:43.983Z,14.92
2023-10-25T16:59:11.265Z,14.71
2023-10-25T17:01:38.693Z,14.69
2023-10-25T17:04:05.822Z,14.83
2023-10-25T17:06:32.871Z,14.54
2023-10-25T17:08:59.638Z,14.49
2023-10-25T17:11:27.255Z,14.55
2023-10-25T17:13:54.018Z,14.61
2023-10-25T17:16:21.368Z,14.56
2023-10-25T17:18:48.378Z,14.58
2023-10-25T17:21:15.963Z,14.65
2023-10-25T17:23:43.840Z,14.58
2023-10-25T17:26:10.836Z,14.59
2023-10-25T17:28:37.774Z,14.65
2023-10-25T17:31:04.890Z,14.62
2023-10-25T17:33:32.006Z,14.84
2023-10-25T17:36:01.306Z,14.86
2023-10-25T17:38:29.256Z,14.92
2023-10-25T17:40:56.435Z,14.84
2023-10-25T17:43:23.629Z,14.70
2023-10-25T17:46:10.736Z,14.61
2023-10-25T17:48:38.472Z,14.68
2023-10-25T17:51:07.774Z,14.60
2023-10-25T17:53:34.873Z,14.53
2023-10-25T17:56:01.934Z,14.50
2023-10-25T17:58:29.125Z,14.49
2023-10-25T18:00:56.071Z,14.33
2023-10-25T18:03:23.912Z,14.58
2023-10-25T18:05:50.947Z,14.48
2023-10-25T18:08:22.843Z,14.16
2023-10-25T18:10:55.714Z,13.87
2023-10-25T18:13:22.543Z,13.98
2023-10-25T18:15:52.033Z,14.25
2023-10-25T18:18:19.945Z,14.45
2023-10-25T18:20:49.034Z,14.58
2023-10-25T18:23:15.745Z,14.91
2023-10-25T18:25:42.568Z,15.12
2023-10-25T18:28:09.338Z,15.10
2023-10-25T18:31:58.004Z,15.14
2023-10-25T18:33:26.224Z,15.07
2023-10-25T18:35:53.105Z,14.98
2023-10-25T18:38:19.806Z,15.15
2023-10-25T18:40:56.333Z,15.12
2023-10-25T18:43:24.557Z,15.18
2023-10-25T18:46:10.704Z,15.43
2023-10-25T18:48:37.713Z,15.51
2023-10-25T18:51:11.106Z,15.54
2023-10-25T18:53:38.348Z,15.43
2023-10-25T18:56:05.893Z,15.35
2023-10-25T18:58:36.708Z,15.39
2023-10-25T19:01:18.122Z,15.54
2023-10-25T19:03:51.126Z,15.65
2023-10-25T19:06:28.473Z,15.71
2023-10-25T19:09:03.424Z,15.81
2023-10-25T19:11:31.680Z,15.69
2023-10-25T19:13:58.834Z,15.77
2023-10-25T19:16:26.721Z,15.65
2023-10-25T19:18:53.595Z,15.57
2023-10-25T19:21:20.322Z,15.44
2023-10-25T19:23:50.823Z,15.37
2023-10-25T19:26:17.738Z,15.42
2023-10-25T19:28:44.596Z,15.47
2023-10-25T19:31:11.708Z,15.52
2023-10-25T19:33:41.453Z,15.50
2023-10-25T19:36:14.088Z,15.63
2023-10-25T19:38:41.110Z,15.66
2023-10-25T19:41:07.880Z,15.54
2023-10-25T19:43:34.684Z,15.37
2023-10-25T19:46:02.286Z,15.29
2023-10-25T19:48:29.115Z,15.39
2023-10-25T19:50:56.056Z,15.08
2023-10-25T19:53:22.808Z,15.00
2023-10-25T19:55:49.478Z,14.91
2023-10-25T19:58:16.203Z,15.05
2023-10-25T20:00:43.482Z,15.33
2023-10-25T20:03:10.316Z,15.47
2023-10-25T20:05:37.272Z,15.53
2023-10-25T20:08:04.122Z,15.54
2023-10-25T20:10:30.882Z,15.50
2023-10-25T20:12:57.793Z,15.52
2023-10-25T20:15:25.886Z,15.44
2023-10-25T20:17:53.199Z,15.48
2023-10-25T20:20:20.004Z,15.55
2023-10-25T20:22:46.704Z,15.52
2023-10-25T20:25:13.596Z,15.40
2023-10-25T20:27:40.505Z,15.12
2023-10-25T20:30:08.016Z,15.19
2023-10-25T20:32:34.981Z,15.33
2023-10-25T20:35:01.897Z,15.24
2023-10-25T20:37:30.397Z,15.09
2023-10-25T20:39:57.169Z,15.09
2023-10-25T20:42:23.988Z,15.21
2023-10-25T20:44:50.957Z,15.38
2023-10-25T20:47:17.723Z,15.47
2023-10-25T20:49:44.750Z,15.37
2023-10-25T20:52:11.575Z,15.29
2023-10-25T20:54:38.270Z,15.07
2023-10-25T20:57:05.395Z,15.20
2023-10-25T20:59:32.208Z,15.19
2023-10-25T21:01:58.953Z,15.28
2023-10-25T21:04:27.015Z,15.34
2023-10-25T21:06:54.136Z,15.30
2023-10-25T21:09:20.919Z,15.35
2023-10-25T21:11:47.751Z,15.38
2023-10-25T21:14:14.519Z,15.40
2023-10-25T21:16:41.787Z,15.44
2023-10-25T21:19:08.896Z,15.35
2023-10-25T21:21:35.704Z,15.09
2023-10-25T21:24:02.432Z,14.99
2023-10-25T21:26:29.744Z,14.90
2023-10-25T21:28:59.152Z,14.90
2023-10-25T21:31:28.377Z,14.93
2023-10-25T21:33:55.559Z,14.81
2023-10-25T21:36:24.458Z,14.84
2023-10-25T21:38:51.514Z,14.85
2023-10-25T21:41:18.419Z,14.98
2023-10-25T21:43:45.180Z,15.12
2023-10-25T21:46:12.980Z,15.04
2023-10-25T21:48:40.178Z,14.90
2023-10-25T21:51:07.814Z,14.94
2023-10-25T21:53:35.177Z,14.89
2023-10-25T21:56:22.274Z,14.80
2023-10-25T21:59:52.733Z,14.81
2023-10-25T22:01:37.811Z,14.89
2023-10-25T22:04:07.351Z,14.80
2023-10-25T22:06:35.553Z,14.79
2023-10-25T22:09:02.452Z,14.86
2023-10-25T22:11:29.299Z,14.77
2023-10-25T22:13:56.088Z,14.83
2023-10-25T22:16:22.819Z,14.93
2023-10-25T22:18:49.735Z,14.96
2023-10-25T22:21:16.646Z,14.76
2023-10-25T22:23:43.532Z,14.48
2023-10-25T22:26:10.299Z,14.30
2023-10-25T22:28:37.156Z,14.11
2023-10-25T22:31:05.820Z,14.00
2023-10-25T22:33:32.760Z,13.88
2023-10-25T22:36:03.935Z,13.86
2023-10-25T22:38:32.619Z,13.89
2023-10-25T22:41:02.141Z,13.88
2023-10-25T22:43:33.506Z,13.90
2023-10-25T22:46:07.553Z,13.95
2023-10-25T22:48:35.101Z,13.84
2023-10-25T22:51:02.014Z,13.99
2023-10-25T22:53:29.070Z,14.21
2023-10-25T22:55:56.552Z,14.19
2023-10-25T22:58:23.421Z,14.01
2023-10-25T23:00:50.243Z,14.12
2023-10-25T23:03:17.209Z,14.29
2023-10-25T23:05:46.857Z,14.34
2023-10-25T23:08:13.682Z,14.28
2023-10-25T23:10:40.547Z,14.27
2023-10-25T23:13:07.266Z,14.41
2023-10-25T23:15:37.258Z,14.41
2023-10-25T23:18:06.955Z,14.38
2023-10-25T23:20:33.852Z,14.41
2023-10-25T23:23:00.568Z,14.49
2023-10-25T23:25:27.282Z,14.44
2023-10-25T23:27:53.961Z,14.55
2023-10-25T23:30:20.763Z,14.67
2023-10-25T23:32:48.094Z,14.65
2023-10-25T23:35:14.852Z,14.60
2023-10-25T23:37:41.696Z,14.70
2023-10-25T23:40:09.073Z,14.72
2023-10-25T23:42:35.745Z,14.76
2023-10-25T23:45:02.621Z,14.84
2023-10-25T23:47:29.460Z,14.80
2023-10-25T23:49:56.201Z,14.69
2023-10-25T23:52:22.968Z,14.27
2023-10-25T23:54:54.586Z,13.98
2023-10-25T23:57:23.389Z,13.99
2023-10-25T23:59:50.591Z,13.98
